createdAt,value
2022-07-31T00:00:21.573Z,64.16
2022-07-31T00:01:21.572Z,63.36
2022-07-31T00:02:21.552Z,63.66
2022-07-31T00:03:21.642Z,63.26
2022-07-31T00:04:21.559Z,63.89
2022-07-31T00:05:21.510Z,63.76
2022-07-31T00:06:21.514Z,63.59
2022-07-31T00:07:21.487Z,63.89
2022-07-31T00:08:21.478Z,64.09
2022-07-31T00:09:52.695Z,64.19
2022-07-31T00:10:22.459Z,64.09
2022-07-31T00:11:21.457Z,64.29
2022-07-31T00:12:21.437Z,64.29
2022-07-31T00:13:56.397Z,64.19
2022-07-31T00:14:22.417Z,65.09
2022-07-31T00:15:21.398Z,65.12
2022-07-31T00:16:21.445Z,65.29
2022-07-31T00:17:21.382Z,65.09
2022-07-31T00:18:21.370Z,65.72
2022-07-31T00:19:21.355Z,65.39
2022-07-31T00:20:21.343Z,65.72
2022-07-31T00:21:21.345Z,65.09
2022-07-31T00:22:21.324Z,65.89
2022-07-31T00:23:21.315Z,65.83
2022-07-31T00:24:21.297Z,65.69
2022-07-31T00:25:21.288Z,65.42
2022-07-31T00:26:21.290Z,65.12
2022-07-31T00:27:21.264Z,65.22
2022-07-31T00:28:21.281Z,65.62
2022-07-31T00:29:21.244Z,65.42
2022-07-31T00:30:21.228Z,66.13
2022-07-31T00:31:21.237Z,66.42
2022-07-31T00:32:21.208Z,67.13
2022-07-31T00:33:21.259Z,66.32
2022-07-31T00:34:21.234Z,66.75
2022-07-31T00:35:21.180Z,66.72
2022-07-31T00:36:21.185Z,66.96
2022-07-31T00:37:22.162Z,67.36
2022-07-31T00:38:28.340Z,67.46
2022-07-31T00:39:22.127Z,67.36
2022-07-31T00:40:21.122Z,67.66
2022-07-31T00:41:21.106Z,67.46
2022-07-31T00:42:21.111Z,67.86
2022-07-31T00:43:21.089Z,67.66
2022-07-31T00:44:21.073Z,67.36
2022-07-31T00:45:22.197Z,67.55
2022-07-31T00:46:22.047Z,67.76
2022-07-31T00:47:23.949Z,67.55
2022-07-31T00:48:21.025Z,67.25
2022-07-31T00:49:21.110Z,67.59
2022-07-31T00:50:21.023Z,67.49
2022-07-31T00:51:20.992Z,67.66
2022-07-31T00:52:21.023Z,67.79
2022-07-31T00:53:20.973Z,68.09
2022-07-31T00:54:23.081Z,67.99
2022-07-31T00:55:20.949Z,68.49
2022-07-31T00:56:20.942Z,68.89
2022-07-31T00:57:20.947Z,68.49
2022-07-31T00:58:20.945Z,68.49
2022-07-31T00:59:24.744Z,68.39
2022-07-31T01:00:20.919Z,68.89
2022-07-31T01:01:20.947Z,69.29
2022-07-31T01:02:20.882Z,68.49
2022-07-31T01:03:20.857Z,68.59
2022-07-31T01:04:20.851Z,68.52
2022-07-31T01:05:20.842Z,68.29
2022-07-31T01:06:20.833Z,68.82
2022-07-31T01:07:20.824Z,68.92
2022-07-31T01:08:20.802Z,69.12
2022-07-31T01:09:20.796Z,68.52
2022-07-31T01:10:20.787Z,69.02
2022-07-31T01:11:20.773Z,69.32
2022-07-31T01:12:20.779Z,69.42
2022-07-31T01:13:20.748Z,69.62
2022-07-31T01:14:20.732Z,69.73
2022-07-31T01:15:20.729Z,69.82
2022-07-31T01:16:20.716Z,69.96
2022-07-31T01:17:20.714Z,70.16
2022-07-31T01:18:20.696Z,69.96
2022-07-31T01:19:20.685Z,70.16
2022-07-31T01:20:20.666Z,69.46
2022-07-31T01:21:20.665Z,70.06
2022-07-31T01:22:34.221Z,69.96
2022-07-31T01:23:21.637Z,70.16
2022-07-31T01:24:20.628Z,70.36
2022-07-31T01:25:20.617Z,70.06
2022-07-31T01:26:20.599Z,70.26
2022-07-31T01:27:20.613Z,70.36
2022-07-31T01:28:20.576Z,70.36
2022-07-31T01:29:20.574Z,70.46
2022-07-31T01:30:20.561Z,70.46
2022-07-31T01:31:28.068Z,70.56
2022-07-31T01:32:21.544Z,70.66
2022-07-31T01:33:21.532Z,70.56
2022-07-31T01:34:20.511Z,70.46
2022-07-31T01:35:20.505Z,70.46
2022-07-31T01:36:20.496Z,70.46
2022-07-31T01:37:20.495Z,70.56
2022-07-31T01:38:20.471Z,70.56
2022-07-31T01:39:20.459Z,70.56
2022-07-31T01:40:20.449Z,70.46
2022-07-31T01:41:20.438Z,70.50
2022-07-31T01:42:20.454Z,70.89
2022-07-31T01:43:20.416Z,70.69
2022-07-31T01:44:20.401Z,70.76
2022-07-31T01:45:20.392Z,71.00
2022-07-31T01:46:20.373Z,70.76
2022-07-31T01:47:20.394Z,70.89
2022-07-31T01:48:20.361Z,70.69
2022-07-31T01:49:20.379Z,70.69
2022-07-31T01:50:42.369Z,70.79
2022-07-31T01:51:21.324Z,70.79
2022-07-31T01:52:20.328Z,70.69
2022-07-31T01:53:20.309Z,70.46
2022-07-31T01:54:20.292Z,70.69
2022-07-31T01:55:20.274Z,70.50
2022-07-31T01:56:20.270Z,70.39
2022-07-31T01:57:20.275Z,70.59
2022-07-31T01:58:20.247Z,70.56
2022-07-31T01:59:22.795Z,70.26
2022-07-31T02:00:33.505Z,70.56
2022-07-31T02:01:26.714Z,70.50
2022-07-31T02:02:21.209Z,70.50
2022-07-31T02:03:20.193Z,70.66
2022-07-31T02:04:21.172Z,70.50
2022-07-31T02:05:20.176Z,71.09
2022-07-31T02:06:20.156Z,70.69
2022-07-31T02:07:20.159Z,70.56
2022-07-31T02:08:20.137Z,70.29
2022-07-31T02:09:20.122Z,70.79
2022-07-31T02:10:20.105Z,70.39
2022-07-31T02:11:20.110Z,69.86
2022-07-31T02:12:20.103Z,70.29
2022-07-31T02:13:21.079Z,70.29
2022-07-31T02:14:20.060Z,70.36
2022-07-31T02:15:20.049Z,70.86
2022-07-31T02:16:20.047Z,70.79
2022-07-31T02:17:22.258Z,70.29
2022-07-31T02:18:20.016Z,70.69
2022-07-31T02:19:20.013Z,70.79
2022-07-31T02:20:20.003Z,70.53
2022-07-31T02:21:19.986Z,70.83
2022-07-31T02:22:19.987Z,70.83
2022-07-31T02:23:19.970Z,71.03
2022-07-31T02:24:19.960Z,71.23
2022-07-31T02:25:19.946Z,71.43
2022-07-31T02:26:19.931Z,71.23
2022-07-31T02:27:57.905Z,71.33
2022-07-31T02:28:20.909Z,71.13
2022-07-31T02:32:49.342Z,71.03
2022-07-31T02:33:49.315Z,71.43
2022-07-31T02:34:49.313Z,71.43
2022-07-31T02:35:49.296Z,71.43
2022-07-31T02:36:49.289Z,71.56
2022-07-31T02:37:49.293Z,71.43
2022-07-31T02:38:49.265Z,71.53
2022-07-31T02:39:49.247Z,71.23
2022-07-31T02:40:49.239Z,71.47
2022-07-31T02:41:49.233Z,71.26
2022-07-31T02:42:49.235Z,71.33
2022-07-31T02:43:49.203Z,70.93
2022-07-31T02:44:49.200Z,71.03
2022-07-31T02:45:49.196Z,70.93
2022-07-31T02:46:49.178Z,71.33
2022-07-31T02:47:49.177Z,70.93
2022-07-31T02:48:49.205Z,71.03
2022-07-31T02:49:49.137Z,71.03
2022-07-31T02:50:49.132Z,71.23
2022-07-31T02:51:49.122Z,70.93
2022-07-31T02:52:49.118Z,71.13
2022-07-31T02:53:49.099Z,70.93
2022-07-31T02:54:49.084Z,70.93
2022-07-31T02:55:49.070Z,70.73
2022-07-31T02:56:49.057Z,71.03
2022-07-31T02:57:49.069Z,70.93
2022-07-31T02:58:49.035Z,70.73
2022-07-31T02:59:49.035Z,70.83
2022-07-31T03:00:49.058Z,70.93
2022-07-31T03:01:49.002Z,70.93
2022-07-31T03:02:49.010Z,71.53
2022-07-31T03:03:48.979Z,70.93
2022-07-31T03:04:48.972Z,70.93
2022-07-31T03:05:48.964Z,70.63
2022-07-31T03:06:48.953Z,70.12
2022-07-31T03:07:48.954Z,69.42
2022-07-31T03:08:48.924Z,69.92
2022-07-31T03:09:48.913Z,70.03
2022-07-31T03:10:48.909Z,70.03
2022-07-31T03:11:48.899Z,69.89
2022-07-31T03:12:48.887Z,71.13
2022-07-31T03:13:48.891Z,70.63
2022-07-31T03:14:48.864Z,71.50
2022-07-31T03:15:50.889Z,71.39
2022-07-31T03:16:48.846Z,71.00
2022-07-31T03:17:48.834Z,71.00
2022-07-31T03:18:48.838Z,71.09
2022-07-31T03:19:48.802Z,71.39
2022-07-31T03:20:48.796Z,71.20
2022-07-31T03:21:48.794Z,71.39
2022-07-31T03:22:48.775Z,71.39
2022-07-31T03:23:48.772Z,71.39
2022-07-31T03:24:48.745Z,71.70
2022-07-31T03:25:48.735Z,71.90
2022-07-31T03:26:48.730Z,71.70
2022-07-31T03:27:55.601Z,71.30
2022-07-31T03:28:49.715Z,71.80
2022-07-31T03:29:48.697Z,72.13
2022-07-31T03:30:48.679Z,71.39
2022-07-31T03:31:48.677Z,71.33
2022-07-31T03:32:48.663Z,71.13
2022-07-31T03:33:48.668Z,70.89
2022-07-31T03:34:48.633Z,71.20
2022-07-31T03:35:48.631Z,70.89
2022-07-31T03:36:48.618Z,70.89
2022-07-31T03:37:48.600Z,70.59
2022-07-31T03:38:50.636Z,71.20
2022-07-31T03:39:48.585Z,71.00
2022-07-31T03:40:48.581Z,71.50
2022-07-31T03:41:48.556Z,71.20
2022-07-31T03:42:48.544Z,71.30
2022-07-31T03:43:48.740Z,71.70
2022-07-31T03:44:48.527Z,71.59
2022-07-31T03:45:48.518Z,71.73
2022-07-31T03:46:48.506Z,71.59
2022-07-31T03:47:48.498Z,71.50
2022-07-31T03:48:48.636Z,71.33
2022-07-31T03:49:48.471Z,71.30
2022-07-31T03:50:48.463Z,71.73
2022-07-31T03:51:48.451Z,71.43
2022-07-31T03:52:48.439Z,71.93
2022-07-31T03:53:48.444Z,72.70
2022-07-31T03:54:48.410Z,72.03
2022-07-31T03:55:48.398Z,72.43
2022-07-31T03:56:48.596Z,72.33
2022-07-31T03:57:48.375Z,72.53
2022-07-31T03:58:52.494Z,72.74
2022-07-31T03:59:48.804Z,72.53
2022-07-31T04:00:48.348Z,72.94
2022-07-31T04:01:57.455Z,72.83
2022-07-31T04:02:49.376Z,72.53
2022-07-31T04:03:48.323Z,72.53
2022-07-31T04:04:48.307Z,72.33
2022-07-31T04:05:48.295Z,72.53
2022-07-31T04:06:48.280Z,72.53
2022-07-31T04:07:48.272Z,72.43
2022-07-31T04:08:48.263Z,72.83
2022-07-31T04:09:48.239Z,72.53
2022-07-31T04:10:48.235Z,72.74
2022-07-31T04:11:48.216Z,72.63
2022-07-31T04:12:48.211Z,72.43
2022-07-31T04:13:48.210Z,72.53
2022-07-31T04:14:48.180Z,72.83
2022-07-31T04:15:48.178Z,72.53
2022-07-31T04:16:48.159Z,72.50
2022-07-31T04:17:48.193Z,72.43
2022-07-31T04:18:51.012Z,72.74
2022-07-31T04:19:48.135Z,72.03
2022-07-31T04:20:48.119Z,72.03
2022-07-31T04:21:48.101Z,72.53
2022-07-31T04:22:49.337Z,72.43
2022-07-31T04:23:50.361Z,72.74
2022-07-31T04:24:48.084Z,72.53
2022-07-31T04:25:48.064Z,72.53
2022-07-31T04:26:48.050Z,72.63
2022-07-31T04:27:48.986Z,72.33
2022-07-31T04:28:48.020Z,72.43
2022-07-31T04:29:48.032Z,72.74
2022-07-31T04:30:47.998Z,72.83
2022-07-31T04:31:47.987Z,73.33
2022-07-31T04:32:47.984Z,72.74
2022-07-31T04:33:50.327Z,72.63
2022-07-31T04:34:48.972Z,72.63
2022-07-31T04:35:47.957Z,72.74
2022-07-31T04:36:47.928Z,72.43
2022-07-31T04:37:48.495Z,72.33
2022-07-31T04:38:47.924Z,72.33
2022-07-31T04:39:47.917Z,72.94
2022-07-31T04:40:47.882Z,72.33
2022-07-31T04:41:47.879Z,72.53
2022-07-31T04:42:47.862Z,72.63
2022-07-31T04:43:47.849Z,72.74
2022-07-31T04:44:47.859Z,72.83
2022-07-31T04:45:47.826Z,72.94
2022-07-31T04:46:47.823Z,72.43
2022-07-31T04:47:47.810Z,72.70
2022-07-31T04:48:49.232Z,72.33
2022-07-31T04:49:47.804Z,72.83
2022-07-31T04:50:47.768Z,72.63
2022-07-31T04:51:47.758Z,72.63
2022-07-31T04:52:47.745Z,73.03
2022-07-31T04:53:47.741Z,72.43
2022-07-31T04:54:47.748Z,72.70
2022-07-31T04:55:47.714Z,72.94
2022-07-31T04:56:47.706Z,72.80
2022-07-31T04:57:47.697Z,72.53
2022-07-31T04:58:47.684Z,72.50
2022-07-31T05:00:00.118Z,72.90
2022-07-31T05:00:48.654Z,72.53
2022-07-31T05:01:47.693Z,72.70
2022-07-31T05:02:47.682Z,72.60
2022-07-31T05:03:47.626Z,72.40
2022-07-31T05:04:47.631Z,72.50
2022-07-31T05:05:48.604Z,72.70
2022-07-31T05:06:47.585Z,72.50
2022-07-31T05:07:47.574Z,72.80
2022-07-31T05:08:47.573Z,72.66
2022-07-31T05:09:47.573Z,72.30
2022-07-31T05:10:47.546Z,72.66
2022-07-31T05:11:47.548Z,72.40
2022-07-31T05:12:47.525Z,72.80
2022-07-31T05:13:47.514Z,72.27
2022-07-31T05:14:47.531Z,72.27
2022-07-31T05:15:47.490Z,72.77
2022-07-31T05:16:47.485Z,72.86
2022-07-31T05:17:47.461Z,71.86
2022-07-31T05:18:47.454Z,72.16
2022-07-31T05:19:47.462Z,72.16
2022-07-31T05:20:47.437Z,71.46
2022-07-31T05:21:54.256Z,71.56
2022-07-31T05:22:48.406Z,72.06
2022-07-31T05:23:47.401Z,71.46
2022-07-31T05:24:47.403Z,71.36
2022-07-31T05:25:47.375Z,71.83
2022-07-31T05:26:47.368Z,71.36
2022-07-31T05:27:47.355Z,70.76
2022-07-31T05:28:47.340Z,70.76
2022-07-31T05:29:47.340Z,71.23
2022-07-31T05:30:47.321Z,71.53
2022-07-31T05:31:59.950Z,71.73
2022-07-31T05:32:48.296Z,71.23
2022-07-31T05:33:47.280Z,71.53
2022-07-31T05:34:47.286Z,70.39
2022-07-31T05:35:47.255Z,70.39
2022-07-31T05:36:47.248Z,69.89
2022-07-31T05:37:47.241Z,69.66
2022-07-31T05:38:47.241Z,69.36
2022-07-31T05:39:47.224Z,69.16
2022-07-31T05:40:47.211Z,68.55
2022-07-31T05:41:47.188Z,68.86
2022-07-31T05:42:47.180Z,69.06
2022-07-31T05:43:47.173Z,68.93
2022-07-31T05:44:47.169Z,68.36
2022-07-31T05:45:47.143Z,68.82
2022-07-31T05:46:47.142Z,68.23
2022-07-31T05:47:47.120Z,67.52
2022-07-31T05:48:47.143Z,67.63
2022-07-31T05:49:47.122Z,67.40
2022-07-31T05:50:47.089Z,67.29
2022-07-31T05:51:47.232Z,67.59
2022-07-31T05:52:47.065Z,67.89
2022-07-31T05:53:47.060Z,67.59
2022-07-31T05:54:47.066Z,67.36
2022-07-31T05:55:47.035Z,67.40
2022-07-31T05:56:47.023Z,67.40
2022-07-31T05:57:47.014Z,67.59
2022-07-31T05:58:48.457Z,67.36
2022-07-31T05:59:47.010Z,67.26
2022-07-31T06:00:46.983Z,67.19
2022-07-31T06:01:47.049Z,67.36
2022-07-31T06:02:47.033Z,67.46
2022-07-31T06:03:52.057Z,67.56
2022-07-31T06:04:47.953Z,67.63
2022-07-31T06:05:46.929Z,67.43
2022-07-31T06:06:46.915Z,67.43
2022-07-31T06:07:51.060Z,67.72
2022-07-31T06:08:46.897Z,67.43
2022-07-31T06:09:46.896Z,67.53
2022-07-31T06:10:46.874Z,66.33
2022-07-31T06:11:46.852Z,65.93
2022-07-31T06:12:46.844Z,65.83
2022-07-31T06:13:46.837Z,66.23
2022-07-31T06:14:46.846Z,66.03
2022-07-31T06:15:49.264Z,65.60
2022-07-31T06:16:46.806Z,66.09
2022-07-31T06:17:46.784Z,65.20
2022-07-31T06:18:46.774Z,65.50
2022-07-31T06:19:46.784Z,66.00
2022-07-31T06:20:46.753Z,65.17
2022-07-31T06:21:46.754Z,65.50
2022-07-31T06:22:46.746Z,65.56
2022-07-31T06:23:46.727Z,65.97
2022-07-31T06:24:46.734Z,65.97
2022-07-31T06:25:46.708Z,64.77
2022-07-31T06:26:46.690Z,64.57
2022-07-31T06:27:50.821Z,64.87
2022-07-31T06:28:49.205Z,65.67
2022-07-31T06:29:46.669Z,65.26
2022-07-31T06:30:46.644Z,64.74
2022-07-31T06:31:46.636Z,64.94
2022-07-31T06:32:46.631Z,64.84
2022-07-31T06:33:48.111Z,65.14
2022-07-31T06:34:46.624Z,64.84
2022-07-31T06:35:46.592Z,64.54
2022-07-31T06:36:46.582Z,64.44
2022-07-31T06:37:46.575Z,64.44
2022-07-31T06:38:46.552Z,64.64
2022-07-31T06:39:56.028Z,64.64
2022-07-31T06:40:47.529Z,63.74
2022-07-31T06:41:46.518Z,64.74
2022-07-31T06:42:46.507Z,64.34
2022-07-31T06:43:46.502Z,64.24
2022-07-31T06:44:46.648Z,64.14
2022-07-31T06:45:51.422Z,64.54
2022-07-31T06:46:49.186Z,64.64
2022-07-31T06:47:46.456Z,64.44
2022-07-31T06:48:46.468Z,65.14
2022-07-31T06:49:46.579Z,64.74
2022-07-31T06:50:46.425Z,65.11
2022-07-31T06:51:46.425Z,63.81
2022-07-31T06:52:46.507Z,64.24
2022-07-31T06:53:46.389Z,64.64
2022-07-31T06:54:46.391Z,64.41
2022-07-31T06:55:46.368Z,64.51
2022-07-31T06:56:46.356Z,63.71
2022-07-31T06:57:46.337Z,64.74
2022-07-31T06:58:46.334Z,64.01
2022-07-31T06:59:46.339Z,64.90
2022-07-31T07:00:46.306Z,64.21
2022-07-31T07:01:46.336Z,64.61
2022-07-31T07:02:46.303Z,64.11
2022-07-31T07:03:46.270Z,64.61
2022-07-31T07:05:05.190Z,64.41
2022-07-31T07:05:47.243Z,64.31
2022-07-31T07:06:46.233Z,64.21
2022-07-31T07:07:46.224Z,64.61
2022-07-31T07:08:46.216Z,64.61
2022-07-31T07:09:46.219Z,65.01
2022-07-31T07:10:46.199Z,64.81
2022-07-31T07:11:46.188Z,64.71
2022-07-31T07:12:46.180Z,65.20
2022-07-31T07:13:46.977Z,64.11
2022-07-31T07:14:46.166Z,63.81
2022-07-31T07:15:46.136Z,64.01
2022-07-31T07:16:46.133Z,64.01
2022-07-31T07:17:46.114Z,64.54
2022-07-31T07:18:46.111Z,64.54
2022-07-31T07:19:46.129Z,64.87
2022-07-31T07:20:47.086Z,65.26
2022-07-31T07:21:46.067Z,64.87
2022-07-31T07:22:46.072Z,65.26
2022-07-31T07:23:46.051Z,65.40
2022-07-31T07:24:46.060Z,64.77
2022-07-31T07:25:46.042Z,65.56
2022-07-31T07:26:46.013Z,65.70
2022-07-31T07:27:46.011Z,65.67
2022-07-31T07:28:45.989Z,65.47
2022-07-31T07:29:45.999Z,65.17
2022-07-31T07:30:45.991Z,65.26
2022-07-31T07:31:45.955Z,65.47
2022-07-31T07:32:45.952Z,65.56
2022-07-31T07:33:45.933Z,65.67
2022-07-31T07:34:45.945Z,65.34
2022-07-31T07:35:45.916Z,65.47
2022-07-31T07:36:45.911Z,64.87
2022-07-31T07:37:45.894Z,65.17
2022-07-31T07:38:45.883Z,65.77
2022-07-31T07:39:45.885Z,65.47
2022-07-31T07:40:45.862Z,64.97
2022-07-31T07:41:45.850Z,65.26
2022-07-31T07:42:45.833Z,64.54
2022-07-31T07:43:51.656Z,65.07
2022-07-31T07:44:46.830Z,64.54
2022-07-31T07:45:45.803Z,65.26
2022-07-31T07:46:45.830Z,65.56
2022-07-31T07:48:05.418Z,64.87
2022-07-31T07:48:46.830Z,63.87
2022-07-31T07:49:45.766Z,63.97
2022-07-31T07:50:45.760Z,63.67
2022-07-31T07:51:59.042Z,64.37
2022-07-31T07:52:46.722Z,64.37
2022-07-31T07:53:45.707Z,63.87
2022-07-31T07:54:45.719Z,63.97
2022-07-31T07:55:45.688Z,64.17
2022-07-31T07:56:45.681Z,64.17
2022-07-31T07:57:45.670Z,63.87
2022-07-31T07:58:45.651Z,64.14
2022-07-31T07:59:45.656Z,64.24
2022-07-31T08:00:45.679Z,64.34
2022-07-31T08:01:45.622Z,63.94
2022-07-31T08:03:02.878Z,64.64
2022-07-31T08:03:51.831Z,64.04
2022-07-31T08:04:47.680Z,63.84
2022-07-31T08:05:45.573Z,63.34
2022-07-31T08:06:45.561Z,63.61
2022-07-31T08:07:45.552Z,64.01
2022-07-31T08:08:45.549Z,63.41
2022-07-31T08:09:45.543Z,63.31
2022-07-31T08:10:45.526Z,63.38
2022-07-31T08:11:45.506Z,63.38
2022-07-31T08:12:45.502Z,62.88
2022-07-31T08:13:49.710Z,63.28
2022-07-31T08:14:45.491Z,62.59
2022-07-31T08:15:45.461Z,62.75
2022-07-31T08:16:45.459Z,62.26
2022-07-31T08:17:45.444Z,62.02
2022-07-31T08:18:45.436Z,61.53
2022-07-31T08:19:49.561Z,61.30
2022-07-31T08:20:46.406Z,60.80
2022-07-31T08:21:45.395Z,60.68
2022-07-31T08:22:45.383Z,60.68
2022-07-31T08:23:45.374Z,60.57
2022-07-31T08:24:45.384Z,60.55
2022-07-31T08:25:45.360Z,59.58
2022-07-31T08:26:45.344Z,60.77
2022-07-31T08:27:47.891Z,60.77
2022-07-31T08:28:49.999Z,60.38
2022-07-31T08:29:46.321Z,60.25
2022-07-31T08:30:45.296Z,59.85
2022-07-31T08:31:49.616Z,60.35
2022-07-31T08:32:45.269Z,60.22
2022-07-31T08:33:45.266Z,58.70
2022-07-31T08:34:45.271Z,59.09
2022-07-31T08:35:50.575Z,58.50
2022-07-31T08:36:46.225Z,59.17
2022-07-31T08:37:59.182Z,58.57
2022-07-31T08:38:46.203Z,58.77
2022-07-31T08:39:45.216Z,58.17
2022-07-31T08:40:45.189Z,58.84
2022-07-31T08:41:45.177Z,57.75
2022-07-31T08:42:45.162Z,57.40
2022-07-31T08:44:00.332Z,57.89
2022-07-31T08:44:46.161Z,57.40
2022-07-31T08:45:45.125Z,56.70
2022-07-31T08:46:45.116Z,56.80
2022-07-31T08:47:45.111Z,56.68
2022-07-31T08:48:45.146Z,57.20
2022-07-31T08:49:45.101Z,57.10
2022-07-31T08:50:45.089Z,57.42
2022-07-31T08:51:50.792Z,58.25
2022-07-31T08:52:46.146Z,58.94
2022-07-31T08:53:45.044Z,59.66
2022-07-31T08:54:45.041Z,59.17
2022-07-31T08:55:55.558Z,59.56
2022-07-31T08:56:46.015Z,59.27
2022-07-31T08:57:44.995Z,59.27
2022-07-31T08:58:44.993Z,58.74
2022-07-31T08:59:45.012Z,58.91
2022-07-31T09:00:45.040Z,58.78
2022-07-31T09:01:44.957Z,57.46
2022-07-31T09:02:44.953Z,57.14
2022-07-31T09:03:44.939Z,56.42
2022-07-31T09:04:47.316Z,56.59
2022-07-31T09:05:44.920Z,56.24
2022-07-31T09:06:44.903Z,54.51
2022-07-31T09:07:44.907Z,53.59
2022-07-31T09:08:44.877Z,52.78
2022-07-31T09:09:50.771Z,52.98
2022-07-31T09:10:50.052Z,53.00
2022-07-31T09:11:44.849Z,53.62
2022-07-31T09:12:44.829Z,53.94
2022-07-31T09:13:44.819Z,54.73
2022-07-31T09:14:45.830Z,55.05
2022-07-31T09:15:44.802Z,54.88
2022-07-31T09:16:44.794Z,55.63
2022-07-31T09:17:53.987Z,56.28
2022-07-31T09:18:45.783Z,56.63
2022-07-31T09:19:54.062Z,57.62
2022-07-31T09:20:45.755Z,58.61
2022-07-31T09:21:44.739Z,58.84
2022-07-31T09:22:44.731Z,59.61
2022-07-31T09:23:44.708Z,59.44
2022-07-31T09:24:44.722Z,59.83
2022-07-31T09:25:44.696Z,59.23
2022-07-31T09:26:44.693Z,58.84
2022-07-31T09:27:44.686Z,59.44
2022-07-31T09:28:44.663Z,58.44
2022-07-31T09:29:44.765Z,59.14
2022-07-31T09:30:56.254Z,58.84
2022-07-31T09:31:45.631Z,59.14
2022-07-31T09:32:44.618Z,58.74
2022-07-31T09:33:45.928Z,58.54
2022-07-31T09:34:44.603Z,58.04
2022-07-31T09:35:44.578Z,57.53
2022-07-31T09:36:44.573Z,57.92
2022-07-31T09:37:44.556Z,58.51
2022-07-31T09:38:44.560Z,57.40
2022-07-31T09:39:52.065Z,56.65
2022-07-31T09:40:51.562Z,57.14
2022-07-31T09:41:59.913Z,56.52
2022-07-31T09:42:45.687Z,56.65
2022-07-31T09:43:51.902Z,56.65
2022-07-31T09:44:45.492Z,57.24
2022-07-31T09:45:48.182Z,57.74
2022-07-31T09:46:44.467Z,58.23
2022-07-31T09:47:44.451Z,58.60
2022-07-31T09:48:44.443Z,56.72
2022-07-31T09:49:44.467Z,56.92
2022-07-31T09:50:44.420Z,56.72
2022-07-31T09:51:44.410Z,56.37
2022-07-31T09:52:44.526Z,55.87
2022-07-31T09:53:44.382Z,56.04
2022-07-31T09:54:44.375Z,55.26
2022-07-31T09:55:44.388Z,54.86
2022-07-31T09:56:44.352Z,55.05
2022-07-31T09:57:50.082Z,54.24
2022-07-31T09:58:45.322Z,53.39
2022-07-31T09:59:44.352Z,53.10
2022-07-31T10:00:44.404Z,52.48
2022-07-31T10:01:44.301Z,51.87
2022-07-31T10:02:44.327Z,52.95
2022-07-31T10:03:44.277Z,52.36
2022-07-31T10:04:44.258Z,51.94
2022-07-31T10:05:44.272Z,51.62
2022-07-31T10:06:44.240Z,50.29
2022-07-31T10:07:44.227Z,50.66
2022-07-31T10:08:44.214Z,49.18
2022-07-31T10:09:44.212Z,50.68
2022-07-31T10:10:44.206Z,51.07
2022-07-31T10:11:44.190Z,50.19
2022-07-31T10:12:44.179Z,50.85
2022-07-31T10:13:44.169Z,50.59
2022-07-31T10:14:44.150Z,50.88
2022-07-31T10:15:44.167Z,51.69
2022-07-31T10:16:44.130Z,51.30
2022-07-31T10:17:44.125Z,51.72
2022-07-31T10:18:44.529Z,52.95
2022-07-31T10:19:44.098Z,52.75
2022-07-31T10:20:44.108Z,53.67
2022-07-31T10:21:44.075Z,53.20
2022-07-31T10:22:44.073Z,54.31
2022-07-31T10:23:44.054Z,54.83
2022-07-31T10:24:44.043Z,54.79
2022-07-31T10:25:44.047Z,56.17
2022-07-31T10:27:10.408Z,56.40
2022-07-31T10:27:45.007Z,56.92
2022-07-31T10:28:43.999Z,56.55
2022-07-31T10:29:43.995Z,57.24
2022-07-31T10:30:43.996Z,57.74
2022-07-31T10:31:43.973Z,57.24
2022-07-31T10:32:43.964Z,57.31
2022-07-31T10:33:45.073Z,56.40
2022-07-31T10:34:43.944Z,55.77
2022-07-31T10:35:43.951Z,55.72
2022-07-31T10:36:44.920Z,54.21
2022-07-31T10:37:43.904Z,53.89
2022-07-31T10:38:43.889Z,53.05
2022-07-31T10:39:43.889Z,52.36
2022-07-31T10:40:43.890Z,51.87
2022-07-31T10:41:43.872Z,52.06
2022-07-31T10:42:43.850Z,52.39
2022-07-31T10:43:43.839Z,51.77
2022-07-31T10:44:43.824Z,50.88
2022-07-31T10:45:43.836Z,50.78
2022-07-31T10:46:43.811Z,48.41
2022-07-31T10:47:48.030Z,49.30
2022-07-31T10:48:44.783Z,50.59
2022-07-31T10:49:43.886Z,51.28
2022-07-31T10:50:43.775Z,50.76
2022-07-31T10:51:43.758Z,50.63
2022-07-31T10:52:43.738Z,49.52
2022-07-31T10:53:51.378Z,49.33
2022-07-31T10:54:44.723Z,48.13
2022-07-31T10:55:43.731Z,49.30
2022-07-31T10:56:43.696Z,49.01
2022-07-31T10:57:55.992Z,49.04
2022-07-31T10:58:44.675Z,49.40
2022-07-31T10:59:44.839Z,49.30
2022-07-31T11:00:43.668Z,48.61
2022-07-31T11:01:43.667Z,49.50
2022-07-31T11:02:44.653Z,49.30
2022-07-31T11:03:43.628Z,48.82
2022-07-31T11:04:43.614Z,48.91
2022-07-31T11:06:01.930Z,47.53
2022-07-31T11:06:44.629Z,48.61
2022-07-31T11:07:43.589Z,48.39
2022-07-31T11:08:43.569Z,48.69
2022-07-31T11:09:51.266Z,47.78
2022-07-31T11:10:44.568Z,48.57
2022-07-31T11:11:43.547Z,49.26
2022-07-31T11:12:43.535Z,48.77
2022-07-31T11:13:43.517Z,47.49
2022-07-31T11:14:43.515Z,48.47
2022-07-31T11:15:43.519Z,48.74
2022-07-31T11:16:43.493Z,48.27
2022-07-31T11:18:22.196Z,47.49
2022-07-31T11:18:44.469Z,47.51
2022-07-31T11:19:43.466Z,47.53
2022-07-31T11:20:43.469Z,47.44
2022-07-31T11:21:43.436Z,48.94
2022-07-31T11:22:43.426Z,49.23
2022-07-31T11:23:56.194Z,47.48
2022-07-31T11:24:44.402Z,48.37
2022-07-31T11:25:43.408Z,48.86
2022-07-31T11:26:43.381Z,50.04
2022-07-31T11:27:43.381Z,50.44
2022-07-31T11:28:43.369Z,48.17
2022-07-31T11:30:00.249Z,49.26
2022-07-31T11:30:44.366Z,49.23
2022-07-31T11:31:43.330Z,49.11
2022-07-31T11:32:43.328Z,47.71
2022-07-31T11:33:43.309Z,48.37
2022-07-31T11:34:43.296Z,47.69
2022-07-31T11:35:43.303Z,47.29
2022-07-31T11:36:43.276Z,47.49
2022-07-31T11:37:56.650Z,47.69
2022-07-31T11:38:44.775Z,47.58
2022-07-31T11:39:51.392Z,47.00
2022-07-31T11:40:44.255Z,47.19
2022-07-31T11:41:44.619Z,47.49
2022-07-31T11:42:43.222Z,47.09
2022-07-31T11:43:43.211Z,47.80
2022-07-31T11:44:43.201Z,47.63
2022-07-31T11:45:43.210Z,48.25
2022-07-31T11:46:43.375Z,47.78
2022-07-31T11:48:12.602Z,48.54
2022-07-31T11:48:45.689Z,49.33
2022-07-31T11:49:48.547Z,49.30
2022-07-31T11:50:44.138Z,48.71
2022-07-31T11:51:43.125Z,47.46
2022-07-31T11:52:43.112Z,48.32
2022-07-31T11:53:43.094Z,48.35
2022-07-31T11:54:43.086Z,48.74
2022-07-31T11:55:43.099Z,48.94
2022-07-31T11:56:43.068Z,49.06
2022-07-31T11:57:52.363Z,47.78
2022-07-31T11:58:44.040Z,49.06
2022-07-31T11:59:46.245Z,49.35
2022-07-31T12:00:44.041Z,49.26
2022-07-31T12:01:43.013Z,48.83
2022-07-31T12:02:43.036Z,49.11
2022-07-31T12:03:42.998Z,48.49
2022-07-31T12:04:42.985Z,48.10
2022-07-31T12:05:43.008Z,48.86
2022-07-31T12:06:42.964Z,47.36
2022-07-31T12:07:42.956Z,47.07
2022-07-31T12:08:42.943Z,47.27
2022-07-31T12:10:01.065Z,48.35
2022-07-31T12:10:43.938Z,48.37
2022-07-31T12:11:42.911Z,47.27
2022-07-31T12:12:42.902Z,47.56
2022-07-31T12:13:42.887Z,47.49
2022-07-31T12:14:42.873Z,47.92
2022-07-31T12:15:42.877Z,48.94
2022-07-31T12:16:42.849Z,49.13
2022-07-31T12:17:42.849Z,49.52
2022-07-31T12:18:42.855Z,49.30
2022-07-31T12:19:42.819Z,48.82
2022-07-31T12:20:42.823Z,49.30
2022-07-31T12:21:42.802Z,48.69
2022-07-31T12:22:42.791Z,47.80
2022-07-31T12:23:42.780Z,48.79
2022-07-31T12:24:42.762Z,48.89
2022-07-31T12:25:42.778Z,48.69
2022-07-31T12:26:42.751Z,48.91
2022-07-31T12:27:42.735Z,48.94
2022-07-31T12:28:42.736Z,49.52
2022-07-31T12:29:42.710Z,50.73
2022-07-31T12:30:42.718Z,50.24
2022-07-31T12:31:42.691Z,50.83
2022-07-31T12:32:42.685Z,50.93
2022-07-31T12:33:42.690Z,50.83
2022-07-31T12:34:42.657Z,51.52
2022-07-31T12:35:54.824Z,50.73
2022-07-31T12:36:43.642Z,51.32
2022-07-31T12:37:42.625Z,50.63
2022-07-31T12:38:45.744Z,51.42
2022-07-31T12:39:54.381Z,51.72
2022-07-31T12:40:43.614Z,51.84
2022-07-31T12:41:42.586Z,51.74
2022-07-31T12:42:42.609Z,52.36
2022-07-31T12:43:50.125Z,52.26
2022-07-31T12:44:43.547Z,52.85
2022-07-31T12:45:42.552Z,53.25
2022-07-31T12:46:42.532Z,52.56
2022-07-31T12:47:42.514Z,52.75
2022-07-31T12:48:46.167Z,52.46
2022-07-31T12:49:42.581Z,52.85
2022-07-31T12:50:42.503Z,53.05
2022-07-31T12:51:44.856Z,53.64
2022-07-31T12:52:42.460Z,52.83
2022-07-31T12:53:42.456Z,52.73
2022-07-31T12:54:42.438Z,51.32
2022-07-31T12:55:42.459Z,51.92